CheckWX is a tool to help pilots better visualize weather data.  It is not intended as a substitute for an official pre-flight weather briefing.

03:23:23 UTC

KAFJ METAR
Washington County Airport
Washington, Pennsylvania, USA
Current

27 mins ago

KAFJ 020256Z AUTO 33005KT 10SM CLR 04/M05 A3002 RMK AO2 SLP172 T00441050 51020 PWINO
Observed
Apr-2 @ 02:56 UTC
Wind
  • 330° at 5 KTS
Visibility
10 SM
Flight Rules
VFR
Cloud Levels
  • Clear skies
Temperature
C / 39°F
Dewpoint
-5°C / 23°F
Humidity
52%
Altimeter
30.02" Hg
Pressure
1016.62 hPa
Previous

1 hour ago

KAFJ 020156Z AUTO 34006KT 10SM CLR 06/M05 A3002 RMK AO2 SLP170 T00561050 PWINO
Observed
Apr-2 @ 01:56 UTC
Wind
  • 340° at 6 KTS
Visibility
10 SM
Flight Rules
VFR
Cloud Levels
  • Clear skies
Temperature
C / 43°F
Dewpoint
-5°C / 23°F
Humidity
46%
Altimeter
30.02" Hg
Pressure
1016.62 hPa
Previous

2 hours ago

KAFJ 020056Z AUTO 34007KT 10SM CLR 07/M03 A2999 RMK AO2 SLP161 T00671028 PWINO
Observed
Apr-2 @ 00:56 UTC
Wind
  • 340° at 7 KTS
Visibility
10 SM
Flight Rules
VFR
Cloud Levels
  • Clear skies
Temperature
C / 45°F
Dewpoint
-3°C / 27°F
Humidity
49%
Altimeter
29.99" Hg
Pressure
1015.62 hPa